createdAt,value
2017-04-27T00:00:23.881Z,99.99
2017-04-27T00:01:04.394Z,99.99
2017-04-27T00:01:44.924Z,99.99
2017-04-27T00:02:25.451Z,99.99
2017-04-27T00:03:05.968Z,99.99
2017-04-27T00:03:46.458Z,99.99
2017-04-27T00:04:26.990Z,99.99
2017-04-27T00:05:07.508Z,99.99
2017-04-27T00:05:48.014Z,99.99
2017-04-27T00:06:28.533Z,99.99
2017-04-27T00:07:09.047Z,99.99
2017-04-27T00:07:49.552Z,99.99
2017-04-27T00:08:30.099Z,99.99
2017-04-27T00:09:10.585Z,99.99
2017-04-27T00:09:51.086Z,99.99
2017-04-27T00:10:31.580Z,99.99
2017-04-27T00:11:12.109Z,99.99
2017-04-27T00:11:52.652Z,99.99
2017-04-27T00:12:33.138Z,99.99
2017-04-27T00:13:13.676Z,99.99
2017-04-27T00:13:54.168Z,99.99
2017-04-27T00:14:34.664Z,99.99
2017-04-27T00:15:15.162Z,99.99
2017-04-27T00:15:55.674Z,99.99
2017-04-27T00:16:36.183Z,99.99
2017-04-27T00:17:16.682Z,99.99
2017-04-27T00:17:57.187Z,99.99
2017-04-27T00:18:37.730Z,99.99
2017-04-27T00:19:18.221Z,99.99
2017-04-27T00:19:58.744Z,99.99
2017-04-27T00:20:39.277Z,99.99
2017-04-27T00:21:19.801Z,99.99
2017-04-27T00:22:00.301Z,99.99
2017-04-27T00:22:40.811Z,99.99
2017-04-27T00:23:21.316Z,99.99
2017-04-27T00:24:01.836Z,99.99
2017-04-27T00:24:42.332Z,99.99
2017-04-27T00:25:22.849Z,99.99
2017-04-27T00:26:03.334Z,99.99
2017-04-27T00:26:43.867Z,99.99
2017-04-27T00:27:24.391Z,99.99
2017-04-27T00:28:04.905Z,99.99
2017-04-27T00:28:45.412Z,99.99
2017-04-27T00:29:25.921Z,99.99
2017-04-27T00:30:06.437Z,99.99
2017-04-27T00:30:46.947Z,99.99
2017-04-27T00:31:27.449Z,99.99
2017-04-27T00:32:07.982Z,99.99
2017-04-27T00:32:48.507Z,99.99
2017-04-27T00:33:29.001Z,99.99
2017-04-27T00:34:09.513Z,99.99
2017-04-27T00:34:50.024Z,99.99
2017-04-27T00:35:30.546Z,99.99
2017-04-27T00:36:11.058Z,99.99
2017-04-27T00:36:51.572Z,99.99
2017-04-27T00:37:32.081Z,99.99
2017-04-27T00:38:12.599Z,99.99
2017-04-27T00:38:53.132Z,99.99
2017-04-27T00:39:33.655Z,99.99
2017-04-27T00:40:14.170Z,99.99
2017-04-27T00:40:54.694Z,99.99
2017-04-27T00:41:35.212Z,99.99
2017-04-27T00:42:15.733Z,99.99
2017-04-27T00:42:56.248Z,99.99
2017-04-27T00:43:36.777Z,99.99
2017-04-27T00:44:17.283Z,99.99
2017-04-27T00:44:57.785Z,99.99
2017-04-27T00:45:38.340Z,99.99
2017-04-27T00:46:18.850Z,99.99
2017-04-27T00:46:59.370Z,99.99
2017-04-27T00:47:39.895Z,99.99
2017-04-27T00:48:20.408Z,99.99
2017-04-27T00:49:00.921Z,99.99
2017-04-27T00:49:41.438Z,99.99
2017-04-27T00:50:21.927Z,99.99
2017-04-27T00:51:02.441Z,99.99
2017-04-27T00:51:42.965Z,99.99
2017-04-27T00:52:23.482Z,99.99
2017-04-27T00:53:04.816Z,99.99
2017-04-27T00:53:45.350Z,99.99
2017-04-27T00:54:25.854Z,99.99
2017-04-27T00:55:06.357Z,99.99
2017-04-27T00:55:46.857Z,99.99
2017-04-27T00:56:27.355Z,99.99
2017-04-27T00:57:07.890Z,99.99
2017-04-27T00:57:48.404Z,99.99
2017-04-27T00:58:28.906Z,99.99
2017-04-27T00:59:09.438Z,99.99
2017-04-27T00:59:49.956Z,99.99
2017-04-27T01:00:30.482Z,99.99
2017-04-27T01:01:10.998Z,99.99
2017-04-27T01:01:51.524Z,99.99
2017-04-27T01:02:32.032Z,99.99
2017-04-27T01:03:12.554Z,99.99
2017-04-27T01:03:53.083Z,99.99
2017-04-27T01:04:33.580Z,99.99
2017-04-27T01:05:14.106Z,99.96
2017-04-27T01:05:54.608Z,99.99
2017-04-27T01:06:35.126Z,99.86
2017-04-27T01:07:15.645Z,99.99
2017-04-27T01:07:56.159Z,99.99
2017-04-27T01:08:36.660Z,99.58
2017-04-27T01:09:17.177Z,99.48
2017-04-27T01:09:57.674Z,99.58
2017-04-27T01:10:38.172Z,99.67
2017-04-27T01:11:18.698Z,98.91
2017-04-27T01:11:59.199Z,99.29
2017-04-27T01:12:39.681Z,98.82
2017-04-27T01:13:20.205Z,98.82
2017-04-27T01:14:00.735Z,98.72
2017-04-27T01:14:41.256Z,98.91
2017-04-27T01:15:21.781Z,98.82
2017-04-27T01:16:02.301Z,98.54
2017-04-27T01:16:42.816Z,98.44
2017-04-27T01:17:23.372Z,98.44
2017-04-27T01:18:03.874Z,98.16
2017-04-27T01:18:44.406Z,98.72
2017-04-27T01:19:24.929Z,97.59
2017-04-27T01:20:05.439Z,97.21
2017-04-27T01:20:45.972Z,97.97
2017-04-27T01:21:26.499Z,97.87
2017-04-27T01:22:07.009Z,97.21
2017-04-27T01:22:47.535Z,97.59
2017-04-27T01:23:28.074Z,97.49
2017-04-27T01:24:08.560Z,97.3
2017-04-27T01:24:49.088Z,97.3
2017-04-27T01:25:29.609Z,97.3
2017-04-27T01:26:10.139Z,97.02
2017-04-27T01:26:50.661Z,97.11
2017-04-27T01:27:31.163Z,97.49
2017-04-27T01:28:11.694Z,97.68
2017-04-27T01:28:52.227Z,96.36
2017-04-27T01:29:32.728Z,97.11
2017-04-27T01:30:13.247Z,96.45
2017-04-27T01:30:53.773Z,96.45
2017-04-27T01:31:34.296Z,96.64
2017-04-27T01:32:14.820Z,95.6
2017-04-27T01:32:55.329Z,95.79
2017-04-27T01:33:35.822Z,96.17
2017-04-27T01:34:16.352Z,94.74
2017-04-27T01:34:56.869Z,94.93
2017-04-27T01:35:37.378Z,95.41
2017-04-27T01:36:17.890Z,95.03
2017-04-27T01:36:58.394Z,95.03
2017-04-27T01:37:38.902Z,94.74
2017-04-27T01:38:19.425Z,94.65
2017-04-27T01:38:59.947Z,94.27
2017-04-27T01:39:40.466Z,94.27
2017-04-27T01:40:20.991Z,94.56
2017-04-27T01:41:01.515Z,94.04
2017-04-27T01:41:42.044Z,93.99
2017-04-27T01:42:22.566Z,94.27
2017-04-27T01:43:03.075Z,93.42
2017-04-27T01:43:43.577Z,93.99
2017-04-27T01:44:24.112Z,93.51
2017-04-27T01:45:04.634Z,93.51
2017-04-27T01:45:45.145Z,93.37
2017-04-27T01:46:25.644Z,93.23
2017-04-27T01:47:06.146Z,93.27
2017-04-27T01:47:46.660Z,93.46
2017-04-27T01:48:27.240Z,93.46
2017-04-27T01:49:07.759Z,92.43
2017-04-27T01:49:48.284Z,92.47
2017-04-27T01:50:28.784Z,92.8
2017-04-27T01:51:09.311Z,92.52
2017-04-27T01:51:49.886Z,92.47
2017-04-27T01:52:30.424Z,92.52
2017-04-27T01:53:10.950Z,92.28
2017-04-27T01:53:51.456Z,92.66
2017-04-27T01:54:31.992Z,92.61
2017-04-27T01:55:12.514Z,92.61
2017-04-27T01:55:53.055Z,91.67
2017-04-27T01:56:33.577Z,91.76
2017-04-27T01:57:14.081Z,91.95
2017-04-27T01:57:54.567Z,91.67
2017-04-27T01:58:35.070Z,91.95
2017-04-27T01:59:15.586Z,91.57
2017-04-27T01:59:56.097Z,91.86
2017-04-27T02:00:36.623Z,91.57
2017-04-27T02:01:17.141Z,91.67
2017-04-27T02:01:57.666Z,91.67
2017-04-27T02:02:38.199Z,91.95
2017-04-27T02:03:18.729Z,91.86
2017-04-27T02:03:59.232Z,91.29
2017-04-27T02:04:39.740Z,91.76
2017-04-27T02:05:20.261Z,91.76
2017-04-27T02:06:00.781Z,91.67
2017-04-27T02:06:41.295Z,91.38
2017-04-27T02:07:21.804Z,91.1
2017-04-27T02:08:02.342Z,90.81
2017-04-27T02:08:42.849Z,90.25
2017-04-27T02:09:23.380Z,90.44
2017-04-27T02:10:03.876Z,90.15
2017-04-27T02:10:44.395Z,90.06
2017-04-27T02:11:24.886Z,90.34
2017-04-27T02:12:05.396Z,90.15
2017-04-27T02:12:45.890Z,89.77
2017-04-27T02:13:26.415Z,89.68
2017-04-27T02:14:06.927Z,89.77
2017-04-27T02:14:47.418Z,89.49
2017-04-27T02:15:27.942Z,89.68
2017-04-27T02:16:08.479Z,89.87
2017-04-27T02:16:48.993Z,89.77
2017-04-27T02:17:29.515Z,89.39
2017-04-27T02:18:10.026Z,89.49
2017-04-27T02:18:50.535Z,88.92
2017-04-27T02:19:31.065Z,89.3
2017-04-27T02:20:11.587Z,89.11
2017-04-27T02:20:52.119Z,89.11
2017-04-27T02:21:32.648Z,89.3
2017-04-27T02:22:13.148Z,89.11
2017-04-27T02:22:53.672Z,89.11
2017-04-27T02:23:34.214Z,88.92
2017-04-27T02:24:14.721Z,89.01
2017-04-27T02:24:55.239Z,88.26
2017-04-27T02:25:35.767Z,89.11
2017-04-27T02:26:16.349Z,88.45
2017-04-27T02:26:56.874Z,88.73
2017-04-27T02:27:37.351Z,88.17
2017-04-27T02:28:17.862Z,87.98
2017-04-27T02:28:58.379Z,87.98
2017-04-27T02:29:38.895Z,88.26
2017-04-27T02:30:19.421Z,88.07
2017-04-27T02:30:59.936Z,88.26
2017-04-27T02:31:40.480Z,88.35
2017-04-27T02:32:20.973Z,88.35
2017-04-27T02:33:01.496Z,88.07
2017-04-27T02:33:41.998Z,87.69
2017-04-27T02:34:22.524Z,87.78
2017-04-27T02:35:03.032Z,87.59
2017-04-27T02:35:43.549Z,87.78
2017-04-27T02:36:24.063Z,87.69
2017-04-27T02:37:04.615Z,87.78
2017-04-27T02:37:45.119Z,87.31
2017-04-27T02:38:25.596Z,87.59
2017-04-27T02:39:06.117Z,87.4
2017-04-27T02:39:46.623Z,87.21
2017-04-27T02:40:27.130Z,86.83
2017-04-27T02:41:07.644Z,86.83
2017-04-27T02:41:48.148Z,87.02
2017-04-27T02:42:28.663Z,86.83
2017-04-27T02:43:09.176Z,86.27
2017-04-27T02:43:49.711Z,86.46
2017-04-27T02:44:30.205Z,86.46
2017-04-27T02:45:10.726Z,86.65
2017-04-27T02:45:51.229Z,86.55
2017-04-27T02:46:31.748Z,86.18
2017-04-27T02:47:12.264Z,85.99
2017-04-27T02:47:52.773Z,86.36
2017-04-27T02:48:33.284Z,86.08
2017-04-27T02:49:13.779Z,86.27
2017-04-27T02:49:54.295Z,86.36
2017-04-27T02:50:34.823Z,86.08
2017-04-27T02:51:15.329Z,86.18
2017-04-27T02:51:55.877Z,86.08
2017-04-27T02:52:36.394Z,85.51
2017-04-27T02:53:16.897Z,85.7
2017-04-27T02:53:57.431Z,85.51
2017-04-27T02:54:37.951Z,85.8
2017-04-27T02:55:18.467Z,85.04
2017-04-27T02:55:58.977Z,85.13
2017-04-27T02:56:39.497Z,85.51
2017-04-27T02:57:20.040Z,84.66
2017-04-27T02:58:00.566Z,84.47
2017-04-27T02:58:41.072Z,84.19
2017-04-27T02:59:21.580Z,84.28
2017-04-27T03:00:02.132Z,84.28
2017-04-27T03:00:42.641Z,84.28
2017-04-27T03:01:23.158Z,83.52
2017-04-27T03:02:03.689Z,83.9
2017-04-27T03:02:44.218Z,83.71
2017-04-27T03:03:24.726Z,83.33
2017-04-27T03:04:05.231Z,83.24
2017-04-27T03:04:45.735Z,83.14
2017-04-27T03:05:26.250Z,83.24
2017-04-27T03:06:06.769Z,82.67
2017-04-27T03:06:47.289Z,83.52
2017-04-27T03:07:27.810Z,82.67
2017-04-27T03:08:08.323Z,83.05
2017-04-27T03:08:48.866Z,82.76
2017-04-27T03:09:29.353Z,83.05
2017-04-27T03:10:09.909Z,82.48
2017-04-27T03:10:50.413Z,82.67
2017-04-27T03:11:30.933Z,82.76
2017-04-27T03:12:11.415Z,82.29
2017-04-27T03:12:51.906Z,82.29
2017-04-27T03:13:32.418Z,81.82
2017-04-27T03:14:13.007Z,82.1
2017-04-27T03:14:53.460Z,81.92
2017-04-27T03:15:34.011Z,81.53
2017-04-27T03:16:14.471Z,81.25
2017-04-27T03:16:54.974Z,81.44
2017-04-27T03:17:35.519Z,81.53
2017-04-27T03:18:15.982Z,81.44
2017-04-27T03:18:56.503Z,81.06
2017-04-27T03:19:37.047Z,81.06
2017-04-27T03:20:17.589Z,80.87
2017-04-27T03:20:58.147Z,80.4
2017-04-27T03:21:38.691Z,80.49
2017-04-27T03:22:19.248Z,80.49
2017-04-27T03:22:59.777Z,80.58
2017-04-27T03:23:40.294Z,80.49
2017-04-27T03:24:20.813Z,80.58
2017-04-27T03:25:01.374Z,79.83
2017-04-27T03:25:41.924Z,80.02
2017-04-27T03:26:22.466Z,79.83
2017-04-27T03:27:03.039Z,80.02
2017-04-27T03:27:43.535Z,79.17
2017-04-27T03:28:24.037Z,79.36
2017-04-27T03:29:04.583Z,79.26
2017-04-27T03:29:45.137Z,79.17
2017-04-27T03:30:25.702Z,78.69
2017-04-27T03:31:06.258Z,78.59
2017-04-27T03:31:46.787Z,78.5
2017-04-27T03:32:27.305Z,78.03
2017-04-27T03:33:07.880Z,78.22
2017-04-27T03:33:48.463Z,78.41
2017-04-27T03:34:28.939Z,78.31
2017-04-27T03:35:09.437Z,78.31
2017-04-27T03:35:49.958Z,77.94
2017-04-27T03:36:30.545Z,78.03
2017-04-27T03:37:11.090Z,77.65
2017-04-27T03:37:51.624Z,77.65
2017-04-27T03:38:32.193Z,77.56
2017-04-27T03:39:12.736Z,77.08
2017-04-27T03:39:53.301Z,77.46
2017-04-27T03:40:33.892Z,77.46
2017-04-27T03:41:14.487Z,77.56
2017-04-27T03:41:55.188Z,77.75
2017-04-27T03:42:35.704Z,77.65
2017-04-27T03:43:16.260Z,76.89
2017-04-27T03:43:56.798Z,77.27
2017-04-27T03:44:37.326Z,77.27
2017-04-27T03:45:17.860Z,76.8
2017-04-27T03:45:58.378Z,76.7
2017-04-27T03:46:38.916Z,76.61
2017-04-27T03:47:19.417Z,76.61
2017-04-27T03:47:59.949Z,76.7
2017-04-27T03:48:40.526Z,76.42
2017-04-27T03:49:21.034Z,76.51
2017-04-27T03:50:01.568Z,76.8
2017-04-27T03:50:42.099Z,76.42
2017-04-27T03:51:22.589Z,76.42
2017-04-27T03:52:03.109Z,76.61
2017-04-27T03:52:43.606Z,76.42
2017-04-27T03:53:24.125Z,76.14
2017-04-27T03:54:04.655Z,76.51
2017-04-27T03:54:45.204Z,76.42
2017-04-27T03:55:25.711Z,76.14
2017-04-27T03:56:06.231Z,76.04
2017-04-27T03:56:46.785Z,75.95
2017-04-27T03:57:27.315Z,75.76
2017-04-27T03:58:07.833Z,75.76
2017-04-27T03:58:48.359Z,75.85
2017-04-27T03:59:28.911Z,76.23
2017-04-27T04:00:09.484Z,75.85
2017-04-27T04:00:50.057Z,76.14
2017-04-27T04:01:30.637Z,76.14
2017-04-27T04:02:11.166Z,76.14
2017-04-27T04:02:51.689Z,76.23
2017-04-27T04:03:32.287Z,76.14
2017-04-27T04:04:12.826Z,76.04
2017-04-27T04:04:53.428Z,76.23
2017-04-27T04:05:33.896Z,75.95
2017-04-27T04:06:14.399Z,75.95
2017-04-27T04:06:54.935Z,76.14
2017-04-27T04:07:35.461Z,75.76
2017-04-27T04:08:15.992Z,75.95
2017-04-27T04:08:56.572Z,75.85
2017-04-27T04:09:37.056Z,76.14
2017-04-27T04:10:17.595Z,75.76
2017-04-27T04:10:58.086Z,75.95
2017-04-27T04:11:38.589Z,76.04
2017-04-27T04:12:19.210Z,75.95
2017-04-27T04:12:59.637Z,76.04
2017-04-27T04:13:40.094Z,75.95
2017-04-27T04:14:20.621Z,76.14
2017-04-27T04:15:01.145Z,75.85
2017-04-27T04:15:41.596Z,76.14
2017-04-27T04:16:22.214Z,75.85
2017-04-27T04:17:02.728Z,76.23
2017-04-27T04:17:43.179Z,75.95
2017-04-27T04:18:23.672Z,75.85
2017-04-27T04:19:04.206Z,75.85
2017-04-27T04:19:44.721Z,75.76
2017-04-27T04:20:25.212Z,75.76
2017-04-27T04:21:05.724Z,75.85
2017-04-27T04:21:46.250Z,75.95
2017-04-27T04:22:26.777Z,75.66
2017-04-27T04:23:07.309Z,75.38
2017-04-27T04:23:47.821Z,75.66
2017-04-27T04:24:28.342Z,75.76
2017-04-27T04:25:08.853Z,75.76
2017-04-27T04:25:49.388Z,75.38
2017-04-27T04:26:29.920Z,75.38
2017-04-27T04:27:10.436Z,75.76
2017-04-27T04:27:50.941Z,75.09
2017-04-27T04:28:31.449Z,75
2017-04-27T04:29:11.980Z,75.09
2017-04-27T04:29:52.490Z,75.28
2017-04-27T04:30:32.992Z,75.09
2017-04-27T04:31:13.498Z,75.19
2017-04-27T04:31:54.027Z,75.19
2017-04-27T04:32:34.529Z,75.19
2017-04-27T04:33:15.040Z,75
2017-04-27T04:33:55.537Z,75
2017-04-27T04:34:36.053Z,75
2017-04-27T04:35:16.567Z,75.28
2017-04-27T04:35:57.077Z,75.28
2017-04-27T04:36:37.588Z,75.09
2017-04-27T04:37:18.209Z,74.71
2017-04-27T04:37:58.726Z,74.71
2017-04-27T04:38:39.221Z,74.81
2017-04-27T04:39:19.794Z,74.81
2017-04-27T04:40:00.325Z,74.52
2017-04-27T04:40:40.823Z,74.71
2017-04-27T04:41:21.339Z,74.71
2017-04-27T04:42:01.852Z,74.71
2017-04-27T04:42:42.346Z,74.81
2017-04-27T04:43:22.846Z,74.81
2017-04-27T04:44:03.374Z,74.62
2017-04-27T04:44:43.893Z,74.43
2017-04-27T04:45:24.392Z,74.52
2017-04-27T04:46:04.927Z,74.24
2017-04-27T04:46:45.447Z,74.15
2017-04-27T04:47:25.975Z,74.71
2017-04-27T04:48:06.531Z,74.62
2017-04-27T04:48:47.048Z,74.52
2017-04-27T04:49:27.586Z,74.71
2017-04-27T04:50:08.107Z,74.43
2017-04-27T04:50:48.613Z,74.52
2017-04-27T04:51:29.131Z,74.43
2017-04-27T04:52:09.649Z,74.62
2017-04-27T04:52:50.179Z,74.43
2017-04-27T04:53:30.685Z,74.52
2017-04-27T04:54:11.176Z,74.52
2017-04-27T04:54:51.698Z,74.52
2017-04-27T04:55:32.208Z,74.43
2017-04-27T04:56:12.729Z,74.43
2017-04-27T04:56:53.253Z,74.71
2017-04-27T04:57:33.780Z,74.62
2017-04-27T04:58:14.278Z,74.43
2017-04-27T04:58:54.803Z,74.52
2017-04-27T04:59:35.314Z,74.62
2017-04-27T05:00:15.837Z,74.62
2017-04-27T05:00:56.362Z,74.33
2017-04-27T05:01:36.880Z,73.96
2017-04-27T05:02:17.395Z,74.24
2017-04-27T05:02:57.911Z,74.15
2017-04-27T05:03:38.423Z,74.05
2017-04-27T05:04:18.934Z,74.05
2017-04-27T05:04:59.459Z,73.86
2017-04-27T05:05:39.980Z,73.86
2017-04-27T05:06:20.484Z,73.96
2017-04-27T05:07:00.991Z,73.96
2017-04-27T05:07:41.495Z,74.05
2017-04-27T05:08:22.015Z,73.77
2017-04-27T05:09:02.527Z,73.86
2017-04-27T05:09:43.048Z,73.86
2017-04-27T05:10:23.577Z,73.86
2017-04-27T05:11:04.093Z,74.15
2017-04-27T05:11:44.621Z,73.68
2017-04-27T05:12:25.143Z,73.68
2017-04-27T05:13:05.656Z,73.68
2017-04-27T05:13:46.197Z,73.39
2017-04-27T05:14:26.710Z,73.86
2017-04-27T05:15:07.227Z,73.68
2017-04-27T05:15:47.746Z,73.58
2017-04-27T05:16:28.374Z,73.86
2017-04-27T05:17:08.935Z,73.96
2017-04-27T05:17:49.500Z,74.05
2017-04-27T05:18:30.056Z,73.39
2017-04-27T05:19:10.587Z,73.3
2017-04-27T05:19:51.092Z,73.58
2017-04-27T05:20:31.619Z,73.11
2017-04-27T05:21:12.127Z,73.3
2017-04-27T05:21:52.639Z,73.11
2017-04-27T05:22:33.167Z,73.11
2017-04-27T05:23:13.689Z,73.11
2017-04-27T05:23:54.198Z,73.49
2017-04-27T05:24:34.709Z,73.2
2017-04-27T05:25:15.243Z,73.49
2017-04-27T05:25:55.775Z,73.3
2017-04-27T05:26:36.307Z,73.2
2017-04-27T05:27:16.819Z,72.92
2017-04-27T05:27:57.365Z,73.01
2017-04-27T05:28:37.836Z,73.01
2017-04-27T05:29:18.340Z,72.92
2017-04-27T05:29:58.886Z,73.01
2017-04-27T05:30:39.399Z,72.92
2017-04-27T05:31:19.923Z,73.2
2017-04-27T05:32:00.428Z,73.3
2017-04-27T05:32:40.922Z,73.2
2017-04-27T05:33:21.443Z,73.39
2017-04-27T05:34:01.960Z,73.11
2017-04-27T05:34:42.484Z,73.3
2017-04-27T05:35:23.020Z,73.11
2017-04-27T05:36:03.509Z,73.49
2017-04-27T05:36:44.033Z,73.3
2017-04-27T05:37:24.584Z,73.11
2017-04-27T05:38:05.110Z,73.49
2017-04-27T05:38:45.656Z,73.11
2017-04-27T05:39:26.185Z,73.49
2017-04-27T05:40:06.694Z,73.49
2017-04-27T05:40:47.239Z,73.39
2017-04-27T05:41:27.776Z,73.49
2017-04-27T05:42:08.301Z,73.49
2017-04-27T05:42:48.822Z,73.11
2017-04-27T05:43:29.348Z,73.49
2017-04-27T05:44:09.854Z,73.49
2017-04-27T05:44:50.366Z,73.01
2017-04-27T05:45:30.863Z,73.2
2017-04-27T05:46:11.418Z,73.3
2017-04-27T05:46:51.912Z,72.92
2017-04-27T05:47:32.415Z,73.01
2017-04-27T05:48:12.933Z,72.82
2017-04-27T05:48:53.677Z,72.82
2017-04-27T05:49:34.368Z,72.63
2017-04-27T05:50:14.912Z,72.92
2017-04-27T05:50:55.412Z,73.11
2017-04-27T05:51:35.936Z,73.01
2017-04-27T05:52:16.460Z,72.86
2017-04-27T05:52:56.962Z,72.96
2017-04-27T05:53:37.465Z,73.05
2017-04-27T05:54:17.998Z,72.63
2017-04-27T05:54:58.486Z,72.82
2017-04-27T05:55:39.022Z,72.57
2017-04-27T05:56:19.547Z,72.57
2017-04-27T05:57:00.071Z,72.57
2017-04-27T05:57:40.599Z,72.77
2017-04-27T05:58:21.127Z,72.67
2017-04-27T05:59:01.663Z,72.67
2017-04-27T05:59:42.169Z,72.77
2017-04-27T06:00:22.723Z,72.96
2017-04-27T06:01:03.230Z,73.05
2017-04-27T06:01:43.766Z,72.86
2017-04-27T06:02:24.299Z,72.96
2017-04-27T06:03:04.821Z,73.24
2017-04-27T06:03:45.353Z,73.33
2017-04-27T06:04:25.883Z,73.24
2017-04-27T06:05:06.423Z,73.33
2017-04-27T06:05:46.927Z,73.33
2017-04-27T06:06:27.465Z,73.24
2017-04-27T06:07:07.973Z,74.18
2017-04-27T06:07:48.488Z,73.9
2017-04-27T06:08:28.984Z,73.99
2017-04-27T06:09:09.487Z,73.71
2017-04-27T06:09:49.992Z,74.09
2017-04-27T06:10:30.546Z,73.8
2017-04-27T06:11:11.061Z,73.52
2017-04-27T06:11:51.566Z,74.09
2017-04-27T06:12:32.096Z,74.28
2017-04-27T06:13:12.588Z,74.18
2017-04-27T06:13:53.105Z,73.9
2017-04-27T06:14:33.644Z,73.8
2017-04-27T06:15:14.162Z,74.09
2017-04-27T06:15:54.664Z,73.94
2017-04-27T06:16:35.211Z,73.84
2017-04-27T06:17:15.733Z,73.75
2017-04-27T06:17:56.255Z,74.22
2017-04-27T06:18:36.780Z,74.6
2017-04-27T06:19:17.276Z,74.69
2017-04-27T06:19:57.805Z,74.69
2017-04-27T06:20:38.347Z,74.51
2017-04-27T06:21:18.873Z,74.69
2017-04-27T06:21:59.395Z,74.79
2017-04-27T06:22:39.939Z,75.26
2017-04-27T06:23:20.472Z,75.45
2017-04-27T06:24:01.010Z,75.26
2017-04-27T06:24:41.544Z,75.45
2017-04-27T06:25:22.049Z,75.84
2017-04-27T06:26:02.573Z,75.74
2017-04-27T06:26:43.084Z,76.03
2017-04-27T06:27:23.609Z,75.84
2017-04-27T06:28:04.146Z,75.93
2017-04-27T06:28:44.664Z,76.12
2017-04-27T06:29:25.177Z,76.21
2017-04-27T06:30:05.713Z,76.59
2017-04-27T06:30:46.241Z,76.68
2017-04-27T06:31:26.761Z,76.68
2017-04-27T06:32:07.284Z,76.87
2017-04-27T06:32:47.802Z,77.16
2017-04-27T06:33:28.327Z,77.54
2017-04-27T06:34:08.836Z,77.64
2017-04-27T06:34:49.346Z,77.45
2017-04-27T06:35:29.851Z,77.73
2017-04-27T06:36:10.388Z,78.2
2017-04-27T06:36:50.897Z,78.11
2017-04-27T06:37:31.425Z,78.49
2017-04-27T06:38:11.951Z,78.43
2017-04-27T06:38:52.456Z,78.81
2017-04-27T06:39:32.978Z,78.81
2017-04-27T06:40:13.545Z,78.77
2017-04-27T06:40:54.072Z,78.62
2017-04-27T06:41:34.600Z,79.47
2017-04-27T06:42:15.123Z,79.38
2017-04-27T06:42:55.648Z,80.24
2017-04-27T06:43:36.182Z,79.95
2017-04-27T06:44:16.729Z,80.8
2017-04-27T06:44:57.248Z,80.8
2017-04-27T06:45:37.756Z,80.8
2017-04-27T06:46:18.284Z,80.62
2017-04-27T06:46:58.807Z,80.8
2017-04-27T06:47:39.318Z,80.52
2017-04-27T06:48:19.832Z,81.27
2017-04-27T06:49:00.372Z,80.9
2017-04-27T06:49:40.911Z,80.52
2017-04-27T06:50:21.435Z,81.37
2017-04-27T06:51:01.949Z,81.66
2017-04-27T06:51:42.483Z,82.04
2017-04-27T06:52:22.996Z,82.42
2017-04-27T06:53:03.521Z,82.93
2017-04-27T06:53:44.039Z,82.74
2017-04-27T06:54:24.578Z,83.97
2017-04-27T06:55:05.086Z,83.5
2017-04-27T06:55:45.604Z,83.88
2017-04-27T06:56:26.168Z,84.74
2017-04-27T06:57:06.689Z,84.45
2017-04-27T06:57:47.227Z,84.36
2017-04-27T06:58:27.760Z,84.92
2017-04-27T06:59:08.277Z,84.83
2017-04-27T06:59:48.818Z,85.21
2017-04-27T07:00:29.352Z,85.68
2017-04-27T07:01:09.885Z,85.4
2017-04-27T07:01:50.411Z,86.07
2017-04-27T07:02:30.940Z,86.44
2017-04-27T07:03:11.474Z,86.35
2017-04-27T07:03:52.004Z,86.82
2017-04-27T07:04:32.581Z,87.11
2017-04-27T07:05:13.118Z,86.72
2017-04-27T07:05:53.655Z,87.77
2017-04-27T07:06:34.194Z,88.24
2017-04-27T07:07:14.708Z,87.87
2017-04-27T07:07:55.233Z,88.72
2017-04-27T07:08:35.745Z,89.72
2017-04-27T07:09:16.278Z,89.24
2017-04-27T07:09:56.803Z,89.72
2017-04-27T07:10:37.336Z,89.62
2017-04-27T07:11:17.871Z,90.19
2017-04-27T07:11:58.411Z,90.85
2017-04-27T07:12:38.952Z,90.28
2017-04-27T07:13:19.489Z,91.04
2017-04-27T07:14:00.015Z,91.8
2017-04-27T07:14:40.535Z,92.28
2017-04-27T07:15:21.056Z,92.61
2017-04-27T07:16:01.588Z,93.08
2017-04-27T07:16:42.106Z,93.84
2017-04-27T07:17:22.625Z,93.46
2017-04-27T07:18:03.151Z,94.51
2017-04-27T07:18:43.664Z,94.51
2017-04-27T07:19:24.188Z,95.36
2017-04-27T07:20:04.711Z,96.03
2017-04-27T07:20:45.244Z,97.31
2017-04-27T07:21:25.760Z,98.17
2017-04-27T07:22:06.292Z,99.99
2017-04-27T07:22:46.820Z,99.99
2017-04-27T07:23:27.357Z,99.99
2017-04-27T07:24:07.888Z,99.99
2017-04-27T07:24:48.409Z,99.99
2017-04-27T07:25:28.943Z,99.99
2017-04-27T07:26:09.469Z,99.99
2017-04-27T07:26:50.011Z,99.99
2017-04-27T07:27:30.558Z,99.99
2017-04-27T07:28:11.096Z,99.99
2017-04-27T07:28:51.633Z,99.99
2017-04-27T07:29:32.154Z,99.99
2017-04-27T07:30:12.697Z,99.99
2017-04-27T07:30:53.227Z,99.99
2017-04-27T07:31:33.772Z,99.99
2017-04-27T07:32:14.301Z,99.99
2017-04-27T07:32:54.807Z,99.99
2017-04-27T07:33:35.337Z,99.99
2017-04-27T07:34:15.933Z,99.99
2017-04-27T07:34:56.460Z,99.99
2017-04-27T07:35:36.979Z,99.99
2017-04-27T07:36:17.503Z,99.99
2017-04-27T07:36:58.027Z,99.99
2017-04-27T07:37:38.550Z,99.99
2017-04-27T07:38:19.079Z,99.99
2017-04-27T07:38:59.617Z,99.99
2017-04-27T07:39:40.141Z,99.99
2017-04-27T07:40:20.660Z,99.99
2017-04-27T07:41:01.177Z,99.99
2017-04-27T07:41:41.723Z,99.99
2017-04-27T07:42:22.259Z,99.99
2017-04-27T07:43:02.796Z,99.99
2017-04-27T07:43:43.325Z,99.99
2017-04-27T07:44:23.852Z,99.99
2017-04-27T07:45:04.395Z,99.99
2017-04-27T07:45:44.928Z,99.99
2017-04-27T07:46:25.466Z,99.99
2017-04-27T07:47:06.016Z,99.99
2017-04-27T07:47:46.553Z,99.99
2017-04-27T07:48:27.080Z,99.99
2017-04-27T07:49:07.605Z,99.99
2017-04-27T07:49:48.142Z,99.99
2017-04-27T07:50:28.684Z,99.99
2017-04-27T07:51:09.215Z,99.99
2017-04-27T07:51:49.753Z,99.99
2017-04-27T07:52:30.284Z,99.99
2017-04-27T07:53:10.827Z,99.99
2017-04-27T07:53:51.362Z,99.99
2017-04-27T07:54:31.896Z,99.99
2017-04-27T07:55:12.439Z,99.99
2017-04-27T07:55:52.975Z,99.99
2017-04-27T07:56:33.507Z,99.99
2017-04-27T07:57:14.026Z,99.99
2017-04-27T07:57:54.561Z,99.99
2017-04-27T07:58:35.088Z,99.99
2017-04-27T07:59:15.616Z,99.99
2017-04-27T07:59:56.170Z,99.99
2017-04-27T08:00:36.646Z,99.99
2017-04-27T08:01:17.168Z,99.99
2017-04-27T08:01:57.687Z,99.99
2017-04-27T08:02:38.212Z,99.99
2017-04-27T08:03:18.734Z,99.99
2017-04-27T08:03:59.273Z,99.99
2017-04-27T08:04:39.797Z,99.99
2017-04-27T08:05:20.323Z,99.99
2017-04-27T08:06:00.862Z,99.99
2017-04-27T08:06:41.402Z,99.99
2017-04-27T08:07:21.937Z,99.99
2017-04-27T08:08:02.484Z,99.99
2017-04-27T08:08:43.030Z,99.99
2017-04-27T08:09:23.555Z,99.99
2017-04-27T08:10:04.090Z,99.99
2017-04-27T08:10:44.621Z,99.99
2017-04-27T08:11:25.153Z,99.99
2017-04-27T08:12:05.682Z,99.99
2017-04-27T08:12:46.220Z,99.99
2017-04-27T08:13:26.738Z,99.99
2017-04-27T08:14:07.251Z,99.99
2017-04-27T08:14:47.790Z,99.99
2017-04-27T08:15:28.331Z,99.99
2017-04-27T08:16:08.864Z,99.99
2017-04-27T08:16:49.416Z,99.99
2017-04-27T08:17:29.939Z,99.99
2017-04-27T08:18:10.457Z,99.99
2017-04-27T08:18:50.983Z,99.99
2017-04-27T08:19:31.516Z,99.99
2017-04-27T08:20:12.048Z,99.99
2017-04-27T08:20:52.580Z,99.99
2017-04-27T08:21:33.128Z,99.99
2017-04-27T08:22:13.653Z,99.99
2017-04-27T08:22:54.182Z,99.99
2017-04-27T08:23:34.711Z,99.99
2017-04-27T08:24:15.226Z,99.99
2017-04-27T08:24:55.765Z,99.99
2017-04-27T08:25:36.300Z,99.99
2017-04-27T08:26:16.829Z,99.99
2017-04-27T08:26:57.375Z,99.99
2017-04-27T08:27:37.903Z,99.99
2017-04-27T08:28:18.430Z,99.99
2017-04-27T08:28:58.980Z,99.99
2017-04-27T08:29:39.511Z,99.99
2017-04-27T08:30:20.052Z,99.99
2017-04-27T08:31:00.597Z,99.99
2017-04-27T08:31:41.137Z,99.99
2017-04-27T08:32:21.678Z,99.99
2017-04-27T08:33:02.212Z,99.99
2017-04-27T08:33:42.754Z,99.99
2017-04-27T08:34:23.287Z,99.99
2017-04-27T08:35:03.824Z,99.99
2017-04-27T08:35:44.367Z,99.99
2017-04-27T08:36:24.906Z,99.99
2017-04-27T08:37:05.443Z,99.99
2017-04-27T08:37:45.969Z,99.99
2017-04-27T08:38:26.509Z,99.99
2017-04-27T08:39:07.048Z,99.99
2017-04-27T08:39:47.599Z,99.99
2017-04-27T08:40:28.106Z,99.99
2017-04-27T08:41:08.644Z,99.99
2017-04-27T08:41:49.178Z,99.99
2017-04-27T08:42:29.720Z,99.99
2017-04-27T08:43:10.227Z,99.99